Time;durP1;ratioP1;P1;durP2;ratioP2;P2;SDS_P1;SDS_P2;PMS_P1;PMS_P2;Temp;Humidity;BMP_temperature;BMP_pressure;BME280_temperature;BME280_humidity;BME280_pressure;Samples;Min_cycle;Max_cycle;Signal;HPM_P1;HPM_P2
2023/01/15 00:01:15;;;;;;;2.53;0.47;;;7.80;99.90;;;;;;5055750;28;20281;-90
2023/01/15 00:03:41;;;;;;;8.27;0.87;;;7.80;99.90;;;;;;5057045;28;20225;-91
2023/01/15 00:06:07;;;;;;;0.90;0.83;;;7.80;99.90;;;;;;5041714;28;20220;-89
2023/01/15 00:08:32;;;;;;;0.87;0.87;;;7.80;99.90;;;;;;5041514;28;20259;-89
2023/01/15 00:11:02;;;;;;;0.47;0.30;;;7.80;99.90;;;;;;5037612;28;20271;-91
2023/01/15 00:13:28;;;;;;;1.63;0.40;;;7.80;99.90;;;;;;5063088;28;20205;-91
2023/01/15 00:16:00;;;;;;;1.60;0.60;;;7.80;99.90;;;;;;5040410;28;20209;-91
2023/01/15 00:18:26;;;;;;;3.80;0.40;;;7.80;99.90;;;;;;5054715;28;20576;-92
2023/01/15 00:20:58;;;;;;;1.70;0.77;;;7.80;99.90;;;;;;5041910;28;20637;-91
2023/01/15 00:28:58;;;;;;;1.53;0.90;;;7.80;99.90;;;;;;5054956;28;20216;-91
2023/01/15 00:31:24;;;;;;;1.07;1.07;;;7.80;99.90;;;;;;5058548;28;20169;-91
2023/01/15 00:33:50;;;;;;;0.30;0.30;;;7.80;99.90;;;;;;5054255;28;20267;-91
2023/01/15 00:36:16;;;;;;;0.73;0.70;;;7.70;99.90;;;;;;5022604;28;20225;-92
2023/01/15 00:38:41;;;;;;;9.80;1.07;;;7.80;99.90;;;;;;5041587;28;20473;-92
2023/01/15 00:41:07;;;;;;;7.73;0.77;;;7.70;99.90;;;;;;5022543;28;20233;-91
2023/01/15 00:43:33;;;;;;;1.00;0.97;;;7.80;99.90;;;;;;5023626;28;20272;-91
2023/01/15 00:45:58;;;;;;;0.63;0.63;;;7.70;99.90;;;;;;5053949;28;20182;-93
2023/01/15 00:48:24;;;;;;;0.30;0.30;;;7.70;99.90;;;;;;5041638;28;20217;-92
2023/01/15 00:50:50;;;;;;;0.20;0.20;;;7.70;99.90;;;;;;5051278;28;20329;-92
2023/01/15 00:53:16;;;;;;;4.10;1.23;;;7.70;99.90;;;;;;5040267;28;20214;-92
2023/01/15 00:55:42;;;;;;;1.07;0.20;;;7.70;99.90;;;;;;5052094;28;20249;-93
2023/01/15 00:58:08;;;;;;;0.37;0.37;;;7.70;99.90;;;;;;5049768;28;20196;-90
2023/01/15 01:00:34;;;;;;;8.40;0.63;;;7.60;99.90;;;;;;5058488;28;20249;-92
2023/01/15 01:03:00;;;;;;;2.03;1.17;;;7.60;99.90;;;;;;5053286;28;20244;-92
2023/01/15 01:05:26;;;;;;;10.83;2.40;;;7.60;99.90;;;;;;5058894;28;20205;-90
2023/01/15 01:07:52;;;;;;;1.33;0.90;;;7.60;99.90;;;;;;5055024;28;20542;-90
2023/01/15 01:10:18;;;;;;;2.93;1.03;;;7.60;99.90;;;;;;5049158;28;20228;-91
2023/01/15 01:12:44;;;;;;;0.53;0.53;;;7.60;99.90;;;;;;5055322;28;20221;-91
2023/01/15 01:15:10;;;;;;;4.33;1.33;;;7.60;99.90;;;;;;5058270;28;20464;-92
2023/01/15 01:17:37;;;;;;;0.60;0.40;;;7.50;99.90;;;;;;5038517;28;20233;-91
2023/01/15 01:20:04;;;;;;;0.50;0.50;;;7.50;99.90;;;;;;5052916;28;20545;-90
2023/01/15 01:22:32;;;;;;;1.30;1.30;;;7.50;99.90;;;;;;5046929;28;20186;-89
2023/01/15 01:24:58;;;;;;;1.73;0.27;;;7.50;99.90;;;;;;5054512;28;20194;-91
2023/01/15 01:27:24;;;;;;;3.10;1.60;;;7.50;99.90;;;;;;5040049;28;20266;-90
2023/01/15 01:29:49;;;;;;;0.63;0.63;;;7.40;99.90;;;;;;5038002;28;20258;-89
2023/01/15 01:32:15;;;;;;;0.60;0.60;;;7.40;99.90;;;;;;5016888;28;20697;-89
2023/01/15 01:34:41;;;;;;;1.80;1.03;;;7.40;99.90;;;;;;5052619;28;20643;-89
2023/01/15 01:37:07;;;;;;;0.50;0.50;;;7.40;99.90;;;;;;5035948;28;20196;-91
2023/01/15 01:39:32;;;;;;;0.83;0.83;;;7.40;99.90;;;;;;5021837;28;20285;-90
2023/01/15 01:41:58;;;;;;;0.77;0.77;;;7.30;99.90;;;;;;5054358;28;20589;-91
2023/01/15 01:44:33;;;;;;;0.20;0.20;;;7.30;99.90;;;;;;5050879;28;20218;-90
2023/01/15 01:47:08;;;;;;;0.30;0.30;;;7.40;99.90;;;;;;5052163;28;20350;-89
2023/01/15 01:49:36;;;;;;;1.30;1.17;;;7.30;99.90;;;;;;5053546;28;20273;-90
2023/01/15 01:52:06;;;;;;;0.60;0.60;;;7.40;99.90;;;;;;5054021;28;20631;-91
2023/01/15 01:54:34;;;;;;;0.40;0.40;;;7.40;99.90;;;;;;5057608;28;20902;-92
2023/01/15 01:57:01;;;;;;;0.40;0.40;;;7.40;99.90;;;;;;5040142;28;20221;-91
2023/01/15 01:59:27;;;;;;;0.40;0.40;;;7.40;99.90;;;;;;5023347;28;20214;-90
2023/01/15 02:01:53;;;;;;;0.53;0.53;;;7.40;99.90;;;;;;5054889;28;20220;-91
2023/01/15 02:04:22;;;;;;;0.77;0.57;;;7.40;99.90;;;;;;5038833;28;20262;-90
2023/01/15 02:06:50;;;;;;;0.77;0.77;;;7.40;99.90;;;;;;5051425;28;20304;-91
2023/01/15 02:09:15;;;;;;;1.43;0.73;;;7.50;99.90;;;;;;5054271;28;20214;-90
2023/01/15 02:11:41;;;;;;;0.87;0.43;;;7.50;99.90;;;;;;5052778;28;20232;-92
2023/01/15 02:14:19;;;;;;;0.30;0.30;;;7.50;99.90;;;;;;5053989;28;20213;-92
2023/01/15 02:16:52;;;;;;;0.20;0.20;;;7.50;99.90;;;;;;5051216;28;20627;-91
2023/01/15 02:19:56;;;;;;;2.93;1.40;;;7.50;99.90;;;;;;5056561;28;20185;-92
2023/01/15 02:22:56;;;;;;;1.00;0.70;;;7.50;99.90;;;;;;5058809;28;20283;-92
2023/01/15 02:25:58;;;;;;;0.83;0.83;;;7.50;99.90;;;;;;5055711;28;20209;-92
2023/01/15 02:28:45;;;;;;;0.93;0.93;;;7.40;99.90;;;;;;5047433;28;20221;-90
2023/01/15 02:31:35;;;;;;;1.67;1.10;;;7.40;99.90;;;;;;5054201;28;20201;-91
2023/01/15 02:34:25;;;;;;;5.83;0.73;;;7.40;99.90;;;;;;5059079;28;20225;-91
2023/01/15 02:37:21;;;;;;;1.20;1.10;;;7.40;99.90;;;;;;5059162;28;20255;-91
2023/01/15 02:39:48;;;;;;;1.60;0.23;;;7.40;99.90;;;;;;5049076;28;20264;-91
2023/01/15 02:42:18;;;;;;;2.90;1.17;;;7.40;99.90;;;;;;5025091;28;20369;-92
2023/01/15 02:44:48;;;;;;;4.57;1.27;;;7.40;99.90;;;;;;5057227;28;20303;-92
2023/01/15 02:47:17;;;;;;;0.27;0.27;;;7.40;99.90;;;;;;5063868;28;20568;-91
2023/01/15 02:49:45;;;;;;;10.93;1.17;;;7.30;99.90;;;;;;5056752;28;20205;-90
2023/01/15 02:52:26;;;;;;;0.30;0.30;;;7.40;99.90;;;;;;5056864;28;20186;-90
2023/01/15 02:54:58;;;;;;;0.70;0.70;;;7.30;99.90;;;;;;5062545;28;20226;-92
2023/01/15 02:57:26;;;;;;;0.50;0.50;;;7.30;99.90;;;;;;5056437;28;20665;-92
2023/01/15 02:59:54;;;;;;;11.97;1.77;;;7.30;99.90;;;;;;5058841;28;20240;-91
2023/01/15 03:02:26;;;;;;;3.73;1.63;;;7.30;99.90;;;;;;5057884;28;20237;-92
2023/01/15 03:05:16;;;;;;;0.43;0.43;;;7.30;99.90;;;;;;5058747;28;20274;-92
2023/01/15 03:07:48;;;;;;;9.00;0.83;;;7.30;99.90;;;;;;5053103;28;20189;-91
2023/01/15 03:10:15;;;;;;;7.83;0.83;;;7.20;99.90;;;;;;5053530;28;20205;-91
2023/01/15 03:13:04;;;;;;;0.30;0.30;;;7.20;99.90;;;;;;5053060;28;20224;-91
2023/01/15 03:18:35;;;;;;;1.83;0.70;;;7.20;99.90;;;;;;5060585;28;20429;-91
2023/01/15 03:21:07;;;;;;;0.70;0.40;;;7.20;99.90;;;;;;5057512;28;20374;-90
2023/01/15 03:23:38;;;;;;;0.37;0.37;;;7.20;99.90;;;;;;5057722;28;20313;-90
2023/01/15 03:26:04;;;;;;;2.23;2.10;;;7.20;99.90;;;;;;5058506;28;20567;-91
2023/01/15 03:28:35;;;;;;;3.93;0.97;;;7.30;99.90;;;;;;5058059;28;20191;-90
2023/01/15 03:31:01;;;;;;;2.90;1.33;;;7.20;99.90;;;;;;5059888;28;20231;-91
2023/01/15 03:33:28;;;;;;;2.33;1.03;;;7.20;99.90;;;;;;5043652;28;20276;-92
2023/01/15 03:35:57;;;;;;;0.23;0.23;;;7.10;99.90;;;;;;5061084;28;20241;-91
2023/01/15 03:38:32;;;;;;;14.87;5.10;;;7.10;99.90;;;;;;5057390;28;20336;-90
2023/01/15 03:41:17;;;;;;;1.90;1.43;;;7.10;99.90;;;;;;5060987;28;20221;-91
2023/01/15 03:43:43;;;;;;;2.60;1.37;;;7.00;99.90;;;;;;5058379;28;20253;-90
2023/01/15 03:46:57;;;;;;;0.30;0.30;;;7.00;99.90;;;;;;5053948;28;20201;-92
2023/01/15 03:50:00;;;;;;;0.70;0.70;;;7.00;99.90;;;;;;5026079;28;20251;-91
2023/01/15 03:52:51;;;;;;;0.50;0.50;;;7.00;99.90;;;;;;5061218;28;20515;-91
2023/01/15 03:55:36;;;;;;;0.20;0.20;;;6.90;99.90;;;;;;5043499;28;20210;-91
2023/01/15 03:58:10;;;;;;;0.93;0.67;;;6.90;99.90;;;;;;5056897;28;20210;-91
2023/01/15 04:00:45;;;;;;;1.10;1.10;;;6.90;99.90;;;;;;5056585;28;20220;-91
2023/01/15 04:03:12;;;;;;;1.57;1.47;;;6.90;99.90;;;;;;5066751;28;20307;-91
2023/01/15 04:05:39;;;;;;;0.30;0.30;;;6.90;99.90;;;;;;5056167;28;20218;-90
2023/01/15 04:08:06;;;;;;;7.63;1.00;;;6.80;99.90;;;;;;5060792;28;20241;-91
2023/01/15 04:10:32;;;;;;;0.30;0.30;;;6.80;99.90;;;;;;5049773;28;20415;-91
2023/01/15 04:12:58;;;;;;;4.33;1.27;;;6.70;99.90;;;;;;5027155;28;20192;-91
2023/01/15 04:15:23;;;;;;;0.20;0.20;;;6.80;99.90;;;;;;5058262;28;20251;-92
2023/01/15 04:17:49;;;;;;;0.10;0.10;;;6.80;99.90;;;;;;5045092;28;20221;-91
2023/01/15 04:20:15;;;;;;;0.87;0.67;;;6.80;99.90;;;;;;5024837;28;20769;-92
2023/01/15 04:22:41;;;;;;;0.70;0.70;;;6.80;99.90;;;;;;5036304;28;20190;-91
2023/01/15 04:25:07;;;;;;;0.30;0.30;;;6.80;99.90;;;;;;5026071;28;20193;-90
2023/01/15 04:27:33;;;;;;;1.40;0.50;;;6.70;99.90;;;;;;5055440;28;20206;-91
2023/01/15 04:29:59;;;;;;;0.73;0.73;;;6.70;99.90;;;;;;5042353;28;20285;-90
2023/01/15 04:32:25;;;;;;;0.20;0.20;;;6.70;99.90;;;;;;5044063;28;20221;-91
2023/01/15 04:34:51;;;;;;;0.90;0.90;;;6.60;99.90;;;;;;5029564;28;20279;-91
2023/01/15 04:37:17;;;;;;;2.33;2.23;;;6.70;99.90;;;;;;5030773;28;20197;-91
2023/01/15 04:39:43;;;;;;;1.10;0.47;;;6.60;99.90;;;;;;5060095;28;20210;-91
2023/01/15 04:44:56;;;;;;;12.53;1.90;;;6.70;99.90;;;;;;5056898;28;20214;-92
2023/01/15 04:47:22;;;;;;;1.87;1.57;;;6.70;99.90;;;;;;5068238;28;20236;-90
2023/01/15 04:49:48;;;;;;;0.50;0.50;;;6.70;99.90;;;;;;5029680;28;20221;-91
2023/01/15 04:52:14;;;;;;;0.40;0.40;;;6.60;99.90;;;;;;5030898;28;20787;-91
2023/01/15 04:54:40;;;;;;;1.90;1.13;;;6.60;99.90;;;;;;5044051;28;20209;-92
2023/01/15 04:57:05;;;;;;;1.57;1.57;;;6.60;99.90;;;;;;5061419;28;20228;-91
2023/01/15 04:59:31;;;;;;;5.70;1.70;;;6.60;99.90;;;;;;5046961;28;20588;-91
2023/01/15 05:01:57;;;;;;;0.30;0.30;;;6.60;99.90;;;;;;5046225;28;20251;-90
2023/01/15 05:04:23;;;;;;;6.33;0.97;;;6.50;99.90;;;;;;5044854;28;20459;-91
2023/01/15 05:06:48;;;;;;;3.40;2.10;;;6.60;99.90;;;;;;5030111;28;20217;-91
2023/01/15 05:09:15;;;;;;;2.57;0.60;;;6.50;99.90;;;;;;5060065;28;20677;-91
2023/01/15 05:11:40;;;;;;;0.67;0.67;;;6.50;99.90;;;;;;5059277;28;20229;-91
2023/01/15 05:14:06;;;;;;;0.57;0.57;;;6.50;99.90;;;;;;5061071;28;20586;-91
2023/01/15 05:16:34;;;;;;;7.30;1.17;;;6.50;99.90;;;;;;5058911;28;20389;-90
2023/01/15 05:19:02;;;;;;;0.97;0.97;;;6.50;99.90;;;;;;5048407;28;20186;-91
2023/01/15 05:21:34;;;;;;;1.47;0.53;;;6.40;99.90;;;;;;5060291;28;20232;-91
2023/01/15 05:24:01;;;;;;;7.43;0.40;;;6.40;99.90;;;;;;5059287;28;20218;-90
2023/01/15 05:26:30;;;;;;;1.03;0.93;;;6.50;99.90;;;;;;5060022;28;20678;-91
2023/01/15 05:28:57;;;;;;;1.70;0.90;;;6.40;99.90;;;;;;5057068;28;20260;-91
2023/01/15 05:31:24;;;;;;;0.40;0.40;;;6.40;99.90;;;;;;5048314;28;20247;-90
2023/01/15 05:33:51;;;;;;;0.30;0.30;;;6.40;99.90;;;;;;5060601;28;20233;-92
2023/01/15 05:36:20;;;;;;;0.30;0.30;;;6.40;99.90;;;;;;5059821;28;20213;-90
2023/01/15 05:38:46;;;;;;;0.70;0.70;;;6.40;99.90;;;;;;5054170;28;20213;-91
2023/01/15 05:44:07;;;;;;;1.80;1.57;;;6.40;99.90;;;;;;5056585;28;20234;-91
2023/01/15 05:46:34;;;;;;;0.20;0.20;;;6.50;99.90;;;;;;5058318;28;20190;-91
2023/01/15 05:49:06;;;;;;;0.30;0.30;;;6.50;99.90;;;;;;5044967;28;20186;-91
2023/01/15 05:51:34;;;;;;;0.70;0.50;;;6.50;99.90;;;;;;5060573;28;20225;-90
2023/01/15 05:54:01;;;;;;;1.03;1.03;;;6.50;99.90;;;;;;5059703;28;20264;-91
2023/01/15 05:56:26;;;;;;;4.10;1.30;;;6.50;99.90;;;;;;5055574;28;20243;-90
2023/01/15 05:58:52;;;;;;;0.67;0.67;;;6.40;99.90;;;;;;5053303;28;20213;-90
2023/01/15 06:01:19;;;;;;;0.20;0.20;;;6.40;99.90;;;;;;5059664;28;20292;-90
2023/01/15 06:03:47;;;;;;;0.43;0.43;;;6.40;99.90;;;;;;5058151;28;20221;-90
2023/01/15 06:06:15;;;;;;;5.23;1.00;;;6.30;99.90;;;;;;5059464;28;20228;-91
2023/01/15 06:08:41;;;;;;;0.47;0.47;;;6.40;99.90;;;;;;5056948;28;20713;-91
2023/01/15 06:11:06;;;;;;;5.70;0.97;;;6.40;99.90;;;;;;5057147;28;20224;-91
2023/01/15 06:13:33;;;;;;;5.90;1.27;;;6.50;99.90;;;;;;5058572;28;20749;-91
2023/01/15 06:16:00;;;;;;;0.37;0.30;;;6.50;99.90;;;;;;5058621;28;20635;-91
2023/01/15 06:18:26;;;;;;;1.67;1.57;;;6.40;99.90;;;;;;5059264;28;20304;-90
2023/01/15 06:20:52;;;;;;;0.27;0.27;;;6.40;99.90;;;;;;5057741;28;20226;-89
2023/01/15 06:23:18;;;;;;;0.20;0.20;;;6.40;99.90;;;;;;5040426;28;20213;-90
2023/01/15 06:25:44;;;;;;;8.30;1.27;;;6.40;99.90;;;;;;5056833;28;20886;-90
2023/01/15 06:28:11;;;;;;;7.03;1.13;;;6.50;99.90;;;;;;5058160;28;20182;-91
2023/01/15 06:30:38;;;;;;;1.03;0.70;;;6.40;99.90;;;;;;5054992;28;20209;-90
2023/01/15 06:33:05;;;;;;;1.37;1.27;;;6.50;99.90;;;;;;5057607;28;20218;-90
2023/01/15 06:35:32;;;;;;;1.20;0.47;;;6.50;99.90;;;;;;5062820;28;20601;-92
2023/01/15 06:37:58;;;;;;;0.40;0.40;;;6.40;99.90;;;;;;5058968;28;20546;-91
2023/01/15 06:40:25;;;;;;;0.67;0.67;;;6.40;99.90;;;;;;5024246;28;20281;-91
2023/01/15 06:48:25;;;;;;;0.30;0.30;;;6.50;99.90;;;;;;5054833;28;20432;-90
2023/01/15 06:50:52;;;;;;;2.73;0.53;;;6.50;99.90;;;;;;5063226;28;20284;-91
2023/01/15 06:53:18;;;;;;;0.40;0.40;;;6.50;99.90;;;;;;5058323;28;20217;-91
2023/01/15 06:55:44;;;;;;;0.40;0.40;;;6.50;99.90;;;;;;5056996;28;20189;-91
2023/01/15 06:58:10;;;;;;;0.20;0.20;;;6.40;99.90;;;;;;5057671;28;20454;-91
2023/01/15 07:00:36;;;;;;;1.03;0.80;;;6.50;99.90;;;;;;5058553;28;20313;-91
2023/01/15 07:03:04;;;;;;;1.33;1.33;;;6.50;99.90;;;;;;5049674;28;20221;-90
2023/01/15 07:05:30;;;;;;;1.03;0.57;;;6.60;99.90;;;;;;5061109;28;20296;-90
2023/01/15 07:07:59;;;;;;;0.70;0.70;;;6.60;99.90;;;;;;5059147;28;20301;-90
2023/01/15 07:10:25;;;;;;;3.03;1.27;;;6.70;99.90;;;;;;5058055;28;20189;-91
2023/01/15 07:12:51;;;;;;;0.43;0.43;;;6.60;99.90;;;;;;5059956;28;20310;-91
2023/01/15 07:15:17;;;;;;;5.20;0.53;;;6.60;99.90;;;;;;5037869;28;20233;-90
2023/01/15 07:17:42;;;;;;;0.40;0.40;;;6.60;99.90;;;;;;5043219;28;20217;-91
2023/01/15 07:20:09;;;;;;;1.00;1.00;;;6.50;99.90;;;;;;5060068;28;20650;-92
2023/01/15 07:22:37;;;;;;;0.60;0.23;;;6.20;99.90;;;;;;5058196;28;20205;-91
2023/01/15 07:25:03;;;;;;;0.30;0.30;;;6.20;99.90;;;;;;5061590;28;20680;-92
2023/01/15 07:27:29;;;;;;;0.93;0.93;;;6.10;99.90;;;;;;5054417;28;20293;-91
2023/01/15 07:29:55;;;;;;;0.47;0.47;;;6.30;99.90;;;;;;5042042;28;20329;-91
2023/01/15 07:32:21;;;;;;;2.30;0.90;;;6.20;99.90;;;;;;5023257;28;20688;-91
2023/01/15 07:34:46;;;;;;;1.70;0.47;;;6.30;99.90;;;;;;5055324;28;20193;-90
2023/01/15 07:37:12;;;;;;;0.47;0.47;;;6.30;99.90;;;;;;5042108;28;20170;-92
2023/01/15 07:39:38;;;;;;;0.60;0.60;;;6.30;99.90;;;;;;5040769;28;20213;-90
2023/01/15 07:50:20;;;;;;;0.43;0.43;;;6.40;99.90;;;;;;5038774;28;20249;-92
2023/01/15 07:52:46;;;;;;;1.60;0.57;;;6.40;99.90;;;;;;5055030;28;20618;-92
2023/01/15 07:55:12;;;;;;;0.53;0.53;;;6.40;99.90;;;;;;5056441;28;20189;-92
2023/01/15 07:57:39;;;;;;;0.97;0.97;;;6.50;99.90;;;;;;5041688;28;20218;-91
2023/01/15 08:00:08;;;;;;;0.47;0.47;;;6.50;99.90;;;;;;5057489;28;20233;-92
2023/01/15 08:02:33;;;;;;;3.20;0.73;;;6.50;99.90;;;;;;5054282;28;20209;-92
2023/01/15 08:05:00;;;;;;;4.70;1.00;;;6.50;99.90;;;;;;5038989;28;20220;-93
2023/01/15 08:07:26;;;;;;;0.77;0.77;;;6.50;99.90;;;;;;5024254;28;20273;-91
2023/01/15 08:09:52;;;;;;;0.50;0.50;;;6.50;99.90;;;;;;5040856;28;20242;-92
2023/01/15 08:15:15;;;;;;;1.03;0.97;;;6.50;99.90;;;;;;5043206;28;20236;-93
2023/01/15 08:17:49;;;;;;;1.47;1.17;;;6.50;99.90;;;;;;5040848;28;20306;-92
2023/01/15 08:20:24;;;;;;;5.20;0.67;;;6.40;99.90;;;;;;5060498;28;20225;-92
2023/01/15 08:22:50;;;;;;;1.60;0.90;;;6.40;99.90;;;;;;5081556;28;20185;-92
2023/01/15 08:25:19;;;;;;;0.83;0.43;;;6.40;99.90;;;;;;5059280;28;20206;-92
2023/01/15 08:27:45;;;;;;;0.30;0.30;;;6.40;99.90;;;;;;5056863;28;20221;-92
2023/01/15 08:30:15;;;;;;;2.17;1.53;;;6.50;99.90;;;;;;5039591;28;20224;-92
2023/01/15 08:32:41;;;;;;;0.40;0.40;;;6.50;99.90;;;;;;5057222;28;20546;-93
2023/01/15 08:35:07;;;;;;;0.60;0.60;;;6.50;99.90;;;;;;5056622;28;20314;-92
2023/01/15 08:37:33;;;;;;;3.00;1.23;;;6.50;99.90;;;;;;5045535;28;20173;-92
2023/01/15 08:39:59;;;;;;;1.40;0.47;;;6.50;99.90;;;;;;5056576;28;20228;-92
2023/01/15 08:42:25;;;;;;;1.43;1.33;;;6.50;99.90;;;;;;5053504;28;20679;-93
2023/01/15 08:44:50;;;;;;;0.30;0.30;;;6.50;99.90;;;;;;5023727;28;20225;-92
2023/01/15 08:47:17;;;;;;;0.40;0.40;;;6.50;99.90;;;;;;5057728;28;20221;-92
2023/01/15 08:49:43;;;;;;;5.30;1.53;;;6.50;99.90;;;;;;5057121;28;20208;-93
2023/01/15 08:52:09;;;;;;;0.30;0.30;;;6.50;99.90;;;;;;5057058;28;20197;-91
2023/01/15 08:54:35;;;;;;;0.30;0.30;;;6.60;99.90;;;;;;5056465;28;20213;-92
2023/01/15 08:57:00;;;;;;;4.70;1.17;;;6.60;99.90;;;;;;5024641;28;20219;-92
2023/01/15 08:59:26;;;;;;;0.70;0.43;;;6.60;99.90;;;;;;5055458;28;20659;-93
2023/01/15 09:01:52;;;;;;;13.30;1.07;;;6.70;99.90;;;;;;5052765;28;20229;-91
2023/01/15 09:04:20;;;;;;;4.97;2.90;;;6.80;99.90;;;;;;5057092;28;20284;-92
2023/01/15 09:06:47;;;;;;;0.30;0.30;;;6.80;99.90;;;;;;5057377;28;20253;-92
2023/01/15 09:09:14;;;;;;;0.40;0.40;;;6.90;99.90;;;;;;5054770;28;20534;-92
2023/01/15 09:11:40;;;;;;;0.47;0.47;;;6.90;99.90;;;;;;5054475;28;20498;-93
2023/01/15 09:14:12;;;;;;;1.80;0.93;;;6.80;99.90;;;;;;5053081;28;20218;-93
2023/01/15 09:16:38;;;;;;;0.87;0.77;;;6.80;99.90;;;;;;5055347;28;20174;-91
2023/01/15 09:19:05;;;;;;;0.47;0.47;;;6.80;99.90;;;;;;5055921;28;20215;-92
2023/01/15 09:21:32;;;;;;;0.30;0.30;;;6.80;99.90;;;;;;5053700;28;20260;-92
2023/01/15 09:23:57;;;;;;;1.00;0.87;;;6.80;99.90;;;;;;5040403;28;20251;-92
2023/01/15 09:26:33;;;;;;;7.83;1.23;;;6.90;99.90;;;;;;5055287;28;20214;-92
2023/01/15 09:29:00;;;;;;;3.30;1.80;;;7.10;99.90;;;;;;5056538;28;20233;-90
2023/01/15 09:31:26;;;;;;;7.40;0.73;;;7.20;99.90;;;;;;5057096;28;20531;-92
2023/01/15 09:33:52;;;;;;;0.50;0.50;;;7.10;99.90;;;;;;5052623;28;20218;-92
2023/01/15 09:36:23;;;;;;;0.50;0.50;;;7.10;99.90;;;;;;5051450;28;20573;-91
2023/01/15 09:38:50;;;;;;;0.87;0.87;;;7.10;99.90;;;;;;5057521;28;20213;-92
2023/01/15 09:44:24;;;;;;;2.73;2.30;;;7.20;99.90;;;;;;5054468;28;20230;-92
2023/01/15 09:47:08;;;;;;;3.43;1.17;;;7.20;99.90;;;;;;5055985;28;20232;-92
2023/01/15 09:49:59;;;;;;;1.90;0.93;;;7.10;99.90;;;;;;5054296;28;20178;-93
2023/01/15 09:53:06;;;;;;;1.63;1.63;;;7.20;99.90;;;;;;5054081;28;20543;-93
2023/01/15 09:55:35;;;;;;;17.00;1.07;;;7.40;99.90;;;;;;5015065;28;20242;-93
2023/01/15 09:58:04;;;;;;;0.73;0.73;;;7.30;99.90;;;;;;5056359;28;20196;-92
2023/01/15 10:00:44;;;;;;;1.80;1.70;;;7.30;99.90;;;;;;5050529;28;20301;-91
2023/01/15 10:03:35;;;;;;;1.40;0.77;;;7.30;99.90;;;;;;5052973;28;20213;-93
2023/01/15 10:06:12;;;;;;;0.83;0.83;;;7.10;99.90;;;;;;5056107;28;20222;-93
2023/01/15 10:08:45;;;;;;;0.93;0.93;;;7.00;99.90;;;;;;5056428;28;20217;-93
2023/01/15 10:11:13;;;;;;;0.30;0.30;;;7.10;99.90;;;;;;5052484;28;20275;-92
2023/01/15 10:13:54;;;;;;;0.30;0.30;;;7.30;99.90;;;;;;5055648;28;20189;-92
2023/01/15 10:16:24;;;;;;;1.17;0.83;;;7.40;99.90;;;;;;5053177;28;20186;-92
2023/01/15 10:18:51;;;;;;;8.60;0.90;;;7.50;99.90;;;;;;5052670;28;20589;-92
2023/01/15 10:22:00;;;;;;;1.70;0.57;;;7.60;99.90;;;;;;5038501;28;20252;-92
2023/01/15 10:24:36;;;;;;;0.50;0.50;;;7.60;99.90;;;;;;5054368;28;20297;-93
2023/01/15 10:27:17;;;;;;;3.33;1.17;;;7.70;99.90;;;;;;5058741;28;20966;-93
2023/01/15 10:29:42;;;;;;;0.37;0.37;;;7.70;99.90;;;;;;5058467;28;20206;-93
2023/01/15 10:32:53;;;;;;;4.00;0.60;;;7.70;99.90;;;;;;5056711;28;20736;-91
2023/01/15 10:35:24;;;;;;;0.30;0.30;;;7.70;99.90;;;;;;5057653;28;20221;-91
2023/01/15 10:37:57;;;;;;;1.17;1.07;;;7.70;99.90;;;;;;5074742;28;20202;-91
2023/01/15 10:40:44;;;;;;;0.60;0.60;;;7.70;99.90;;;;;;5062796;28;20241;-91
2023/01/15 10:43:16;;;;;;;5.60;1.47;;;7.70;99.90;;;;;;5057642;28;20240;-94
2023/01/15 10:46:00;;;;;;;3.10;0.77;;;7.70;99.90;;;;;;5053669;28;20232;-92
2023/01/15 10:48:47;;;;;;;2.00;1.10;;;7.80;99.90;;;;;;5055376;28;20205;-92
2023/01/15 10:51:27;;;;;;;0.40;0.40;;;7.80;99.90;;;;;;5063030;28;20213;-92
2023/01/15 10:54:22;;;;;;;1.43;0.50;;;7.80;99.90;;;;;;5057718;28;20289;-93
2023/01/15 10:57:06;;;;;;;0.40;0.40;;;7.70;99.90;;;;;;5056660;28;20225;-93
2023/01/15 10:59:40;;;;;;;1.97;1.33;;;7.60;99.90;;;;;;5053806;28;20825;-92
2023/01/15 11:02:32;;;;;;;0.60;0.60;;;7.60;99.90;;;;;;5054022;28;20229;-91
2023/01/15 11:04:59;;;;;;;0.20;0.20;;;7.60;99.90;;;;;;5057046;28;20295;-91
2023/01/15 11:07:42;;;;;;;5.93;0.57;;;7.60;99.90;;;;;;5056178;28;20727;-91
2023/01/15 11:10:16;;;;;;;1.00;1.00;;;7.50;99.90;;;;;;5055129;28;20249;-90
2023/01/15 11:21:21;;;;;;;0.97;0.43;;;7.20;99.90;;;;;;5053196;28;20270;-90
2023/01/15 11:23:48;;;;;;;0.30;0.30;;;7.10;99.90;;;;;;5051297;28;20217;-91
2023/01/15 11:26:33;;;;;;;0.43;0.40;;;7.10;99.90;;;;;;5040588;28;20233;-91
2023/01/15 11:29:10;;;;;;;0.83;0.83;;;7.00;99.90;;;;;;5056325;28;20227;-90
2023/01/15 11:31:38;;;;;;;0.30;0.30;;;6.90;99.90;;;;;;5050756;28;20188;-93
2023/01/15 11:34:17;;;;;;;0.37;0.37;;;6.90;99.90;;;;;;5058643;28;20205;-92
2023/01/15 11:36:43;;;;;;;0.67;0.67;;;6.80;99.90;;;;;;5036766;28;20221;-94
2023/01/15 11:39:27;;;;;;;2.33;0.70;;;6.80;99.90;;;;;;5039929;28;20216;-90
2023/01/15 11:51:00;;;;;;;10.57;2.20;;;6.80;99.90;;;;;;5054332;28;20724;-91
2023/01/15 11:53:33;;;;;;;2.20;1.10;;;6.80;99.90;;;;;;5057382;28;20205;-91
2023/01/15 11:56:05;;;;;;;0.40;0.40;;;6.80;99.90;;;;;;5053136;28;20209;-90
2023/01/15 11:58:44;;;;;;;3.27;1.10;;;6.80;99.90;;;;;;5056517;28;20260;-90
2023/01/15 12:01:33;;;;;;;5.33;2.30;;;6.80;99.90;;;;;;5056387;28;20201;-92
2023/01/15 12:04:01;;;;;;;3.90;0.77;;;6.80;99.90;;;;;;5052968;28;20613;-92
2023/01/15 12:06:30;;;;;;;0.90;0.90;;;6.80;99.90;;;;;;5056191;28;20229;-92
2023/01/15 12:09:00;;;;;;;0.37;0.37;;;6.80;99.90;;;;;;5050983;28;20209;-91
2023/01/15 12:11:33;;;;;;;0.67;0.50;;;6.70;99.90;;;;;;5052768;28;20248;-93
2023/01/15 12:14:27;;;;;;;1.70;1.07;;;6.70;99.90;;;;;;5054788;28;20315;-92
2023/01/15 12:17:14;;;;;;;3.13;0.40;;;6.70;99.90;;;;;;5056889;28;21148;-90
2023/01/15 12:20:01;;;;;;;0.20;0.20;;;6.70;99.90;;;;;;5055843;28;20238;-90
2023/01/15 12:22:30;;;;;;;0.40;0.40;;;6.70;99.90;;;;;;5054225;28;20288;-92
2023/01/15 12:25:11;;;;;;;0.40;0.40;;;6.80;99.90;;;;;;5058714;28;20743;-91
2023/01/15 12:27:51;;;;;;;0.33;0.33;;;6.80;99.90;;;;;;5054936;28;20228;-92
2023/01/15 12:31:02;;;;;;;2.43;0.63;;;6.80;99.90;;;;;;5055770;28;20706;-90
2023/01/15 12:33:40;;;;;;;0.20;0.20;;;6.80;99.90;;;;;;4955098;28;20228;-93
2023/01/15 12:36:20;;;;;;;0.60;0.60;;;6.70;99.90;;;;;;4953885;28;20244;-91
2023/01/15 12:39:11;;;;;;;1.80;1.70;;;6.70;99.90;;;;;;5020239;28;20290;-92
2023/01/15 12:47:48;;;;;;;2.17;0.70;;;6.60;99.90;;;;;;5049474;28;20218;-91
2023/01/15 12:50:27;;;;;;;0.87;0.87;;;6.70;99.90;;;;;;5053790;28;20236;-94
2023/01/15 12:53:04;;;;;;;0.30;0.30;;;6.70;99.90;;;;;;5059078;28;20221;-92
2023/01/15 12:55:36;;;;;;;7.53;0.67;;;6.80;99.90;;;;;;5071702;28;20204;-91
2023/01/15 12:58:10;;;;;;;0.40;0.30;;;6.80;99.90;;;;;;5055251;28;20177;-91
2023/01/15 13:00:42;;;;;;;0.20;0.20;;;6.90;99.90;;;;;;5052833;28;20243;-94
2023/01/15 13:03:17;;;;;;;1.07;0.93;;;6.90;99.90;;;;;;5043646;28;20291;-93
2023/01/15 13:05:50;;;;;;;4.77;0.90;;;7.00;99.90;;;;;;5050696;28;20581;-93
2023/01/15 13:08:32;;;;;;;0.50;0.50;;;7.00;99.90;;;;;;5049544;28;20217;-91
2023/01/15 13:10:57;;;;;;;0.40;0.40;;;7.00;99.90;;;;;;5054387;28;20229;-92
2023/01/15 13:13:29;;;;;;;1.30;1.20;;;7.00;99.90;;;;;;5019384;28;20265;-93
2023/01/15 13:16:10;;;;;;;0.57;0.53;;;7.00;99.90;;;;;;5055999;28;20267;-93
2023/01/15 13:18:54;;;;;;;5.20;0.63;;;6.90;99.90;;;;;;5053009;28;20218;-92
2023/01/15 13:21:23;;;;;;;0.50;0.50;;;6.90;99.90;;;;;;5054165;28;20632;-92
2023/01/15 13:24:14;;;;;;;1.40;1.03;;;6.80;99.90;;;;;;5037722;28;20272;-91
2023/01/15 13:27:07;;;;;;;0.77;0.77;;;6.80;99.90;;;;;;5051352;28;20737;-92
2023/01/15 13:29:49;;;;;;;4.27;1.60;;;6.80;99.90;;;;;;5055034;28;20224;-91
2023/01/15 13:32:30;;;;;;;1.20;0.50;;;7.00;99.90;;;;;;5051330;28;20232;-94
2023/01/15 13:35:04;;;;;;;0.73;0.73;;;7.00;99.90;;;;;;5049834;28;20260;-94
2023/01/15 13:37:53;;;;;;;7.87;0.77;;;7.00;99.90;;;;;;5052903;28;20208;-91
2023/01/15 13:40:33;;;;;;;0.80;0.80;;;7.10;99.90;;;;;;5054706;28;20728;-91
2023/01/15 13:43:00;;;;;;;0.20;0.20;;;7.10;99.90;;;;;;5056401;28;20244;-92
2023/01/15 13:45:32;;;;;;;0.50;0.43;;;7.10;99.90;;;;;;5051691;28;20217;-92
2023/01/15 13:48:14;;;;;;;0.20;0.20;;;7.10;99.90;;;;;;5052953;28;20679;-90
2023/01/15 13:50:49;;;;;;;2.53;0.53;;;7.20;99.90;;;;;;5053609;28;20585;-93
2023/01/15 13:53:21;;;;;;;0.27;0.27;;;7.30;99.90;;;;;;5051720;28;20216;-92
2023/01/15 13:55:57;;;;;;;1.63;1.27;;;7.30;99.90;;;;;;5049393;28;20181;-92
2023/01/15 13:58:29;;;;;;;0.60;0.60;;;7.30;99.90;;;;;;5050326;28;20178;-94
2023/01/15 14:01:21;;;;;;;0.30;0.30;;;7.30;99.90;;;;;;5051202;28;20305;-95
2023/01/15 14:04:14;;;;;;;0.30;0.30;;;7.30;99.90;;;;;;5053810;28;20222;-93
2023/01/15 14:06:45;;;;;;;6.17;0.57;;;7.40;99.90;;;;;;5049639;28;20729;-92
2023/01/15 14:09:23;;;;;;;2.43;0.83;;;7.40;99.90;;;;;;5050682;28;20213;-95
2023/01/15 14:11:55;;;;;;;0.97;0.97;;;7.40;99.90;;;;;;5053264;28;20247;-90
2023/01/15 14:14:23;;;;;;;1.03;0.67;;;7.30;99.90;;;;;;5051275;28;20214;-93
2023/01/15 14:17:01;;;;;;;0.73;0.73;;;7.30;99.90;;;;;;5053859;28;20299;-91
2023/01/15 14:19:40;;;;;;;0.50;0.50;;;7.30;99.90;;;;;;5052593;28;20205;-93